Time;durP1;ratioP1;P1;durP2;ratioP2;P2;SDS_P1;SDS_P2;PMS_P1;PMS_P2;Temp;Humidity;BMP_temperature;BMP_pressure;BME280_temperature;BME280_humidity;BME280_pressure;Samples;Min_cycle;Max_cycle;Signal;HPM_P1;HPM_P2
2023/07/17 00:00:12;;;;;;;7.72;5.10;;;;;;;20.33;63.09;100465.06;5029572;28;20135;-75
2023/07/17 00:02:40;;;;;;;8.07;4.97;;;;;;;20.29;62.62;100447.53;5028507;28;20045;-78
2023/07/17 00:05:09;;;;;;;8.15;4.90;;;;;;;20.45;62.19;100460.53;5025632;28;20057;-75
2023/07/17 00:07:37;;;;;;;7.13;4.80;;;;;;;20.46;61.79;100456.81;5025000;28;20046;-75
2023/07/17 00:10:05;;;;;;;7.82;4.43;;;;;;;20.51;61.60;100465.34;5010402;28;20049;-75
2023/07/17 00:12:33;;;;;;;10.70;5.32;;;;;;;20.54;61.50;100461.53;5010381;28;20130;-74
2023/07/17 00:14:59;;;;;;;8.02;5.05;;;;;;;20.45;61.26;100441.69;4998420;28;20056;-74
2023/07/17 00:17:28;;;;;;;8.07;4.80;;;;;;;20.43;60.99;100449.03;5002594;28;20553;-75
2023/07/17 00:19:56;;;;;;;8.07;4.60;;;;;;;20.38;62.12;100466.56;5003820;28;20050;-75
2023/07/17 00:22:24;;;;;;;9.18;5.13;;;;;;;20.17;63.05;100475.44;5012160;28;20064;-75
2023/07/17 00:24:51;;;;;;;8.00;4.25;;;;;;;19.98;63.65;100474.47;5012720;28;20075;-75
2023/07/17 00:27:18;;;;;;;7.80;4.70;;;;;;;19.91;64.91;100476.81;5001318;28;20070;-75
2023/07/17 00:29:46;;;;;;;8.07;4.90;;;;;;;19.85;65.26;100469.25;5006116;28;20046;-75
2023/07/17 00:32:13;;;;;;;8.02;4.40;;;;;;;19.86;65.28;100482.56;4998868;28;21281;-74
2023/07/17 00:34:41;;;;;;;7.30;4.90;;;;;;;19.88;65.50;100483.31;4997679;28;20426;-74
2023/07/17 00:37:08;;;;;;;7.93;4.85;;;;;;;19.89;65.57;100487.69;4995032;28;20129;-75
2023/07/17 00:39:35;;;;;;;9.88;4.88;;;;;;;19.82;66.01;100474.91;5003978;28;20550;-75
2023/07/17 00:42:03;;;;;;;10.48;4.82;;;;;;;19.92;66.47;100482.06;5005403;28;20041;-73
2023/07/17 00:44:30;;;;;;;9.20;4.93;;;;;;;20.03;64.15;100482.97;5002316;28;20049;-74
2023/07/17 00:46:56;;;;;;;7.82;4.75;;;;;;;20.10;63.05;100476.13;4998162;28;20081;-74
2023/07/17 00:49:27;;;;;;;5.93;4.20;;;;;;;20.04;63.18;100471.25;5011739;28;20128;-76
2023/07/17 00:51:56;;;;;;;8.30;4.82;;;;;;;19.94;63.90;100490.00;5003455;28;20121;-74
2023/07/17 00:54:22;;;;;;;10.23;4.50;;;;;;;19.78;65.25;100490.44;5004821;28;20122;-74
2023/07/17 00:56:50;;;;;;;8.43;4.78;;;;;;;19.63;66.85;100486.34;4993358;28;20046;-75
2023/07/17 00:59:17;;;;;;;9.02;5.05;;;;;;;19.59;68.21;100491.13;5002469;28;20042;-74
2023/07/17 01:01:44;;;;;;;7.57;4.45;;;;;;;19.54;68.99;100496.00;5004446;28;20046;-74
2023/07/17 01:04:11;;;;;;;10.27;5.22;;;;;;;19.48;70.12;100492.97;4999109;28;20065;-74
2023/07/17 01:06:41;;;;;;;10.95;4.72;;;;;;;19.43;70.34;100492.47;4995104;28;20384;-74
2023/07/17 01:09:12;;;;;;;8.75;4.80;;;;;;;19.29;71.05;100472.13;5002767;28;20092;-75
2023/07/17 01:11:39;;;;;;;7.65;4.88;;;;;;;19.27;71.26;100496.41;5001949;28;20096;-74
2023/07/17 01:14:14;;;;;;;8.40;4.75;;;;;;;19.20;71.98;100489.00;5002436;28;20486;-75
2023/07/17 01:16:41;;;;;;;8.30;4.63;;;;;;;19.12;72.31;100491.44;4995706;28;20125;-74
2023/07/17 01:19:08;;;;;;;8.70;4.63;;;;;;;19.05;73.48;100499.13;5001824;28;20073;-75
2023/07/17 01:21:39;;;;;;;7.88;4.50;;;;;;;19.02;73.81;100495.84;5006516;28;20422;-74
2023/07/17 01:24:06;;;;;;;9.35;4.95;;;;;;;18.98;74.52;100486.34;4999311;28;20502;-75
2023/07/17 01:26:32;;;;;;;7.05;4.50;;;;;;;19.10;74.98;100488.88;4998184;28;20838;-75
2023/07/17 01:28:59;;;;;;;9.27;4.57;;;;;;;19.23;72.23;100483.34;5005297;28;20133;-75
2023/07/17 01:31:26;;;;;;;7.63;4.40;;;;;;;19.48;71.49;100479.53;5005095;28;20054;-76
2023/07/17 01:33:52;;;;;;;11.00;4.35;;;;;;;19.63;69.85;100486.34;5006923;28;20136;-74
2023/07/17 01:36:19;;;;;;;6.82;4.40;;;;;;;19.70;68.44;100486.66;4990698;28;20172;-74
2023/07/17 01:38:46;;;;;;;7.57;4.63;;;;;;;19.63;68.38;100478.28;4999383;28;20061;-74
2023/07/17 01:41:12;;;;;;;10.95;4.93;;;;;;;19.59;68.82;100479.53;4998369;28;20052;-74
2023/07/17 01:43:39;;;;;;;9.85;4.57;;;;;;;19.50;69.27;100491.88;5003106;28;21520;-75
2023/07/17 01:46:06;;;;;;;9.38;4.82;;;;;;;19.38;70.73;100475.88;4999559;28;20049;-76
2023/07/17 01:48:34;;;;;;;10.57;4.97;;;;;;;19.40;70.14;100485.53;4990127;28;20046;-77
2023/07/17 01:51:00;;;;;;;8.13;4.70;;;;;;;19.31;71.24;100491.66;5005497;28;20045;-76
2023/07/17 01:53:27;;;;;;;7.95;4.68;;;;;;;19.27;72.14;100488.34;5003609;28;20153;-75
2023/07/17 01:55:54;;;;;;;8.52;4.38;;;;;;;19.28;72.47;100486.53;4995502;28;21127;-75
2023/07/17 01:58:20;;;;;;;10.07;4.82;;;;;;;19.36;71.82;100493.97;5003365;28;20064;-74
2023/07/17 02:00:53;;;;;;;10.57;5.13;;;;;;;19.46;71.36;100489.53;5001206;28;20414;-75
2023/07/17 02:03:21;;;;;;;6.75;4.47;;;;;;;19.52;70.99;100483.69;5004527;28;20077;-75
2023/07/17 02:05:51;;;;;;;7.72;4.97;;;;;;;19.51;71.13;100495.44;4979817;28;20141;-74
2023/07/17 02:08:18;;;;;;;6.03;4.18;;;;;;;19.34;72.33;100487.88;4998036;28;20102;-76
2023/07/17 02:10:52;;;;;;;8.77;4.38;;;;;;;19.08;74.21;100468.50;5001965;28;20050;-74
2023/07/17 02:13:18;;;;;;;11.00;5.00;;;;;;;19.15;74.14;100501.94;5009489;28;20100;-74
2023/07/17 02:15:45;;;;;;;8.00;4.93;;;;;;;19.00;75.38;100487.06;4989308;28;20077;-74
2023/07/17 02:18:13;;;;;;;6.63;4.20;;;;;;;19.04;74.96;100489.41;5000925;28;20038;-74
2023/07/17 02:20:40;;;;;;;10.63;4.90;;;;;;;19.02;76.16;100490.50;5000671;28;20128;-75
2023/07/17 02:23:07;;;;;;;9.32;5.10;;;;;;;19.05;76.60;100498.25;5000804;28;20049;-74
2023/07/17 02:25:34;;;;;;;8.85;4.80;;;;;;;19.07;75.80;100505.22;5008921;28;20129;-73
2023/07/17 02:28:00;;;;;;;9.55;4.93;;;;;;;19.02;77.63;100506.59;4999293;28;20053;-76
2023/07/17 02:30:28;;;;;;;7.43;4.63;;;;;;;18.88;78.56;100487.09;5009164;28;20134;-74
2023/07/17 02:32:55;;;;;;;9.98;4.78;;;;;;;19.07;77.41;100507.06;5020933;28;20079;-73
2023/07/17 02:35:21;;;;;;;9.50;4.65;;;;;;;19.11;76.91;100500.47;4996303;28;20108;-73
2023/07/17 02:37:48;;;;;;;9.25;4.55;;;;;;;19.08;76.93;100485.47;4995491;28;20062;-76
2023/07/17 02:40:15;;;;;;;11.45;4.32;;;;;;;19.07;76.84;100489.13;5006722;28;20054;-74
2023/07/17 02:42:42;;;;;;;8.35;5.05;;;;;;;19.14;76.91;100503.75;5022382;28;20053;-75
2023/07/17 02:45:09;;;;;;;11.00;5.03;;;;;;;18.98;77.61;100491.69;5027839;28;20101;-76
2023/07/17 02:47:36;;;;;;;7.72;4.40;;;;;;;19.03;78.53;100505.63;5012275;28;20047;-75
2023/07/17 02:50:04;;;;;;;9.82;5.10;;;;;;;19.01;78.49;100513.78;5006409;28;20105;-75
2023/07/17 02:52:34;;;;;;;9.82;4.40;;;;;;;19.00;78.27;100498.66;5013503;28;20068;-75
2023/07/17 02:55:04;;;;;;;9.43;4.90;;;;;;;19.10;77.86;100521.09;5014095;28;20052;-75
2023/07/17 02:57:34;;;;;;;12.70;4.93;;;;;;;19.01;78.30;100521.84;5001442;28;20053;-76
2023/07/17 03:00:14;;;;;;;9.48;4.68;;;;;;;18.93;79.07;100513.53;5007380;28;20100;-76
2023/07/17 03:02:43;;;;;;;7.78;4.50;;;;;;;18.96;78.73;100521.34;5004865;28;20042;-76
2023/07/17 03:05:10;;;;;;;8.00;4.75;;;;;;;18.76;80.69;100503.28;5006303;28;20050;-76
2023/07/17 03:07:43;;;;;;;8.98;5.10;;;;;;;18.83;81.32;100523.28;4990505;28;20447;-76
2023/07/17 03:10:12;;;;;;;8.77;5.22;;;;;;;18.72;81.72;100523.31;5008935;28;20042;-76
2023/07/17 03:12:39;;;;;;;9.73;4.93;;;;;;;18.68;83.14;100533.41;5005317;28;20042;-75
2023/07/17 03:15:06;;;;;;;8.38;4.80;;;;;;;18.73;82.45;100531.19;5001447;28;20142;-75
2023/07/17 03:17:33;;;;;;;7.75;4.65;;;;;;;18.68;83.04;100528.03;5007601;28;20137;-75
2023/07/17 03:20:05;;;;;;;10.88;4.70;;;;;;;18.53;83.39;100516.66;5003442;28;20502;-75
2023/07/17 03:22:31;;;;;;;8.20;5.30;;;;;;;18.51;84.13;100520.44;5021715;28;20362;-76
2023/07/17 03:24:58;;;;;;;8.35;4.97;;;;;;;18.68;83.52;100536.09;5021360;28;20469;-76
2023/07/17 03:27:25;;;;;;;8.07;4.93;;;;;;;18.73;82.83;100535.75;5002696;28;20624;-76
2023/07/17 03:29:52;;;;;;;9.48;5.22;;;;;;;18.52;83.80;100525.69;5006238;28;20052;-74
2023/07/17 03:32:18;;;;;;;10.05;5.45;;;;;;;18.64;83.76;100541.81;5007453;28;20481;-75
2023/07/17 03:34:45;;;;;;;8.40;4.78;;;;;;;18.42;84.10;100513.94;5009350;28;20038;-75
2023/07/17 03:37:12;;;;;;;7.40;4.80;;;;;;;18.55;84.35;100543.38;5001997;28;20053;-75
2023/07/17 03:39:40;;;;;;;11.43;5.13;;;;;;;18.58;83.81;100540.41;5009328;28;20064;-75
2023/07/17 03:42:10;;;;;;;11.55;5.25;;;;;;;18.62;84.28;100551.78;5009338;28;20517;-75
2023/07/17 03:44:37;;;;;;;8.25;5.35;;;;;;;18.58;84.28;100546.66;5006330;28;20049;-75
2023/07/17 03:47:08;;;;;;;8.27;5.35;;;;;;;18.53;84.87;100546.16;5009379;28;20069;-76
2023/07/17 03:49:35;;;;;;;10.48;4.72;;;;;;;18.50;85.31;100549.06;5024084;28;20049;-75
2023/07/17 03:52:02;;;;;;;9.65;5.38;;;;;;;18.54;84.91;100552.38;5011520;28;20046;-76
2023/07/17 03:54:30;;;;;;;8.88;5.07;;;;;;;18.53;84.80;100562.25;5005560;28;20140;-76
2023/07/17 03:56:56;;;;;;;12.68;5.18;;;;;;;18.53;86.59;100556.03;4999203;28;20129;-76
2023/07/17 03:59:24;;;;;;;15.65;5.00;;;;;;;18.43;86.16;100539.78;5003225;28;20601;-76
2023/07/17 04:01:52;;;;;;;10.95;5.10;;;;;;;18.55;85.97;100562.13;4997150;28;20046;-76
2023/07/17 04:04:19;;;;;;;9.98;5.30;;;;;;;18.50;86.74;100557.13;5008271;28;20046;-75
2023/07/17 04:06:46;;;;;;;12.13;5.53;;;;;;;18.58;86.43;100561.88;5009257;28;20046;-75
2023/07/17 04:09:15;;;;;;;7.32;4.95;;;;;;;18.58;87.13;100556.50;5002433;28;20047;-75
2023/07/17 04:11:45;;;;;;;11.23;5.03;;;;;;;18.65;86.65;100559.63;5008422;28;20046;-75
2023/07/17 04:14:13;;;;;;;11.70;5.53;;;;;;;18.62;85.74;100558.03;5015590;28;20080;-75
2023/07/17 04:16:40;;;;;;;8.98;5.15;;;;;;;18.64;87.94;100571.31;5014773;28;20392;-75
2023/07/17 04:19:07;;;;;;;12.10;5.18;;;;;;;18.63;87.56;100566.91;5016878;28;20088;-75
2023/07/17 04:21:33;;;;;;;11.20;5.57;;;;;;;18.65;87.93;100573.03;5003905;28;20104;-75
2023/07/17 04:24:00;;;;;;;8.77;5.00;;;;;;;18.70;87.63;100582.44;5007791;28;20057;-75
2023/07/17 04:26:27;;;;;;;10.70;5.22;;;;;;;18.69;87.82;100580.72;4999005;28;20076;-75
2023/07/17 04:28:54;;;;;;;12.35;5.43;;;;;;;18.63;88.49;100575.81;4983799;28;20045;-74
2023/07/17 04:31:20;;;;;;;10.57;5.40;;;;;;;18.53;88.55;100556.88;5006985;28;20044;-76
2023/07/17 04:33:48;;;;;;;8.77;5.00;;;;;;;18.55;88.88;100579.09;5008932;28;20620;-76
2023/07/17 04:36:14;;;;;;;10.68;5.00;;;;;;;18.56;88.99;100590.66;5006682;28;20060;-75
2023/07/17 04:38:41;;;;;;;9.05;5.20;;;;;;;18.55;92.02;100599.69;4981863;28;20512;-75
2023/07/17 04:41:08;;;;;;;10.00;5.45;;;;;;;18.53;91.30;100605.16;5006865;28;20057;-75
2023/07/17 04:43:35;;;;;;;11.30;5.85;;;;;;;18.34;93.39;100620.94;5014554;28;20042;-74
2023/07/17 04:46:02;;;;;;;13.32;5.88;;;;;;;18.14;95.30;100614.38;5007713;28;20050;-75
2023/07/17 04:48:29;;;;;;;10.80;5.15;;;;;;;18.11;97.13;100613.75;5017596;28;20044;-74
2023/07/17 04:50:55;;;;;;;8.40;5.18;;;;;;;18.16;98.34;100600.88;5024998;28;20034;-75
2023/07/17 04:53:22;;;;;;;10.38;5.40;;;;;;;18.28;96.57;100601.75;5020472;28;20038;-74
2023/07/17 04:55:49;;;;;;;10.15;4.93;;;;;;;18.36;96.20;100627.03;5026566;28;20050;-75
2023/07/17 04:58:17;;;;;;;9.05;6.07;;;;;;;18.20;96.80;100621.13;5004864;28;20054;-75
2023/07/17 05:00:46;;;;;;;8.40;5.35;;;;;;;18.12;98.54;100623.50;5004520;28;20123;-75
2023/07/17 05:03:13;;;;;;;8.10;5.45;;;;;;;18.09;98.60;100621.94;5008554;28;20103;-74
2023/07/17 05:05:40;;;;;;;11.32;5.47;;;;;;;18.04;98.62;100615.19;5009487;28;20050;-75
2023/07/17 05:08:07;;;;;;;11.90;6.18;;;;;;;18.06;98.30;100626.66;4998304;28;20073;-75
2023/07/17 05:10:34;;;;;;;9.30;5.20;;;;;;;18.11;99.46;100624.47;5005501;28;20061;-74
2023/07/17 05:13:01;;;;;;;11.68;5.40;;;;;;;18.20;97.05;100623.81;5008715;28;20129;-75
2023/07/17 05:15:27;;;;;;;11.10;5.63;;;;;;;18.32;96.92;100620.19;5002096;28;20414;-75
2023/07/17 05:17:54;;;;;;;10.95;5.85;;;;;;;18.40;96.23;100623.16;5000121;28;20046;-74
2023/07/17 05:20:21;;;;;;;11.45;5.22;;;;;;;18.37;96.52;100618.03;5013903;28;20038;-75
2023/07/17 05:22:49;;;;;;;8.85;5.38;;;;;;;18.36;97.75;100616.31;5006405;28;20081;-75
2023/07/17 05:25:16;;;;;;;9.48;5.57;;;;;;;18.42;97.97;100621.19;5009679;28;20367;-75
2023/07/17 05:27:42;;;;;;;11.10;5.18;;;;;;;18.49;99.14;100610.88;4991551;28;20052;-75
2023/07/17 05:30:10;;;;;;;8.50;5.05;;;;;;;18.64;97.06;100609.72;5007033;28;20045;-75
2023/07/17 05:32:37;;;;;;;9.43;6.03;;;;;;;18.86;95.60;100620.50;5012809;28;20213;-76
2023/07/17 05:35:04;;;;;;;12.63;5.70;;;;;;;18.97;94.77;100619.66;5021379;28;20121;-75
2023/07/17 05:37:30;;;;;;;9.18;5.60;;;;;;;19.21;93.04;100630.28;4999037;28;20054;-74
2023/07/17 05:39:57;;;;;;;8.05;5.05;;;;;;;19.33;91.29;100621.28;5005897;28;20140;-74
2023/07/17 05:42:24;;;;;;;10.10;5.07;;;;;;;19.52;89.89;100623.34;5008385;28;20049;-76
2023/07/17 05:44:50;;;;;;;11.75;5.25;;;;;;;19.75;88.75;100625.03;5018878;28;20034;-74
2023/07/17 05:47:19;;;;;;;13.00;5.40;;;;;;;19.89;86.84;100629.28;5024547;28;20213;-74
2023/07/17 05:49:47;;;;;;;9.68;5.85;;;;;;;19.74;86.81;100634.09;5039279;28;20042;-74
2023/07/17 05:52:17;;;;;;;8.93;5.25;;;;;;;19.48;88.88;100644.22;5030328;28;20069;-74
2023/07/17 05:54:43;;;;;;;15.68;6.30;;;;;;;19.29;90.42;100638.59;5025325;28;20073;-75
2023/07/17 05:57:10;;;;;;;10.65;6.18;;;;;;;19.10;90.02;100627.59;5026997;28;20061;-75
2023/07/17 05:59:37;;;;;;;13.85;6.10;;;;;;;19.11;91.91;100635.53;5025151;28;20065;-75
2023/07/17 06:02:04;;;;;;;9.00;5.47;;;;;;;19.10;92.04;100627.59;5017154;28;20069;-76
2023/07/17 06:04:31;;;;;;;14.32;5.85;;;;;;;19.21;90.60;100641.03;5019350;28;20489;-75
2023/07/17 06:06:58;;;;;;;7.20;5.00;;;;;;;19.26;91.91;100634.31;5025625;28;20050;-74
2023/07/17 06:09:25;;;;;;;9.55;5.70;;;;;;;19.28;90.42;100627.00;5004666;28;20045;-74
2023/07/17 06:11:52;;;;;;;10.00;5.07;;;;;;;19.44;92.30;100639.22;5009043;28;20068;-74
2023/07/17 06:14:18;;;;;;;12.55;6.90;;;;;;;19.55;88.98;100623.09;5016228;28;20111;-75
2023/07/17 06:16:45;;;;;;;8.63;5.32;;;;;;;19.70;86.70;100643.34;5007634;28;20336;-75
2023/07/17 06:19:13;;;;;;;8.02;5.72;;;;;;;19.73;85.24;100629.69;5002367;28;20049;-75
2023/07/17 06:21:40;;;;;;;11.20;5.63;;;;;;;20.03;82.47;100652.34;5010940;28;20046;-74
2023/07/17 06:24:09;;;;;;;12.07;5.53;;;;;;;20.09;80.61;100651.84;5003783;28;20053;-75
2023/07/17 06:26:37;;;;;;;10.55;5.68;;;;;;;20.19;80.45;100640.19;5005466;28;20046;-75
2023/07/17 06:29:05;;;;;;;9.82;5.63;;;;;;;20.29;77.03;100632.22;4990932;28;20050;-74
2023/07/17 06:31:32;;;;;;;11.15;5.72;;;;;;;20.48;77.05;100651.22;5015866;28;20046;-75
2023/07/17 06:34:03;;;;;;;10.95;5.35;;;;;;;20.75;75.22;100648.06;5006544;28;20149;-75
2023/07/17 06:36:30;;;;;;;14.35;5.40;;;;;;;21.27;71.36;100657.03;5002232;28;20057;-76
2023/07/17 06:38:57;;;;;;;10.45;5.40;;;;;;;21.79;66.88;100655.97;4997923;28;20042;-76
2023/07/17 06:41:24;;;;;;;8.55;5.55;;;;;;;22.11;65.45;100665.72;5009077;28;20046;-75
2023/07/17 06:43:51;;;;;;;8.23;5.38;;;;;;;22.38;64.30;100655.94;5017004;28;20046;-74
2023/07/17 06:46:17;;;;;;;8.32;5.40;;;;;;;22.90;67.15;100661.06;5013149;28;20128;-75
2023/07/17 06:48:46;;;;;;;10.77;5.32;;;;;;;23.44;59.59;100655.81;4973944;28;20092;-76
2023/07/17 06:51:13;;;;;;;9.43;6.00;;;;;;;23.43;56.62;100647.84;5006207;28;20137;-75
2023/07/17 06:53:39;;;;;;;9.48;5.70;;;;;;;22.92;57.18;100642.88;5010476;28;20046;-74
2023/07/17 06:56:06;;;;;;;9.07;5.18;;;;;;;22.51;58.87;100652.13;5003488;28;20077;-75
2023/07/17 06:58:33;;;;;;;9.02;5.13;;;;;;;22.51;60.20;100649.44;5000777;28;20073;-76
2023/07/17 07:01:00;;;;;;;13.55;5.25;;;;;;;22.64;61.20;100642.75;5018406;28;20058;-73
2023/07/17 07:03:29;;;;;;;9.77;5.00;;;;;;;22.88;57.89;100646.84;5000702;28;20042;-74
2023/07/17 07:05:57;;;;;;;17.95;6.43;;;;;;;22.82;56.27;100650.16;5007306;28;20046;-74
2023/07/17 07:08:26;;;;;;;10.77;5.75;;;;;;;22.34;58.67;100651.00;4994427;28;20061;-75
2023/07/17 07:10:55;;;;;;;9.73;5.18;;;;;;;21.83;60.95;100660.09;5002437;28;20516;-76
2023/07/17 07:13:23;;;;;;;7.68;4.55;;;;;;;21.70;62.84;100651.41;5009818;28;20042;-75
2023/07/17 07:15:50;;;;;;;11.05;5.95;;;;;;;21.57;62.29;100640.84;5003537;28;20545;-76
2023/07/17 07:18:19;;;;;;;9.63;5.05;;;;;;;21.65;61.53;100664.44;5001015;28;20515;-74
2023/07/17 07:20:49;;;;;;;9.53;4.50;;;;;;;21.79;60.98;100637.09;4997220;28;20046;-76
2023/07/17 07:23:16;;;;;;;11.47;5.23;;;;;;;22.44;65.13;100668.03;5008445;28;20053;-77
2023/07/17 07:25:43;;;;;;;11.10;5.50;;;;;;;22.87;58.53;100658.66;5006573;28;20053;-76
2023/07/17 07:28:13;;;;;;;8.82;4.80;;;;;;;23.30;55.12;100666.22;5002594;28;20048;-76
2023/07/17 07:30:40;;;;;;;10.13;4.88;;;;;;;23.74;55.13;100670.06;4997581;28;20074;-76
2023/07/17 07:33:07;;;;;;;10.10;5.00;;;;;;;23.83;51.52;100661.06;5001418;28;20132;-75
2023/07/17 07:35:34;;;;;;;8.48;5.05;;;;;;;24.17;52.29;100658.56;5002001;28;20490;-75
2023/07/17 07:38:01;;;;;;;8.93;4.75;;;;;;;24.72;49.17;100659.28;5001409;28;20054;-75
2023/07/17 07:40:28;;;;;;;8.85;4.95;;;;;;;24.94;48.54;100665.25;5003268;28;20209;-75
2023/07/17 07:42:55;;;;;;;9.52;4.68;;;;;;;24.50;48.27;100651.66;5004196;28;20152;-76
2023/07/17 07:45:21;;;;;;;9.57;4.30;;;;;;;23.83;48.62;100671.00;5007831;28;20054;-76
2023/07/17 07:47:48;;;;;;;10.80;4.90;;;;;;;23.32;51.97;100662.38;5016288;28;20046;-75
2023/07/17 07:50:15;;;;;;;8.23;4.78;;;;;;;23.48;53.30;100666.31;5015647;28;20045;-75
2023/07/17 07:52:42;;;;;;;12.27;5.20;;;;;;;23.65;52.77;100665.56;5003495;28;20061;-76
2023/07/17 07:55:11;;;;;;;8.38;5.07;;;;;;;23.52;52.73;100654.22;4989535;28;20038;-74
2023/07/17 07:57:38;;;;;;;10.02;4.82;;;;;;;23.95;52.46;100662.53;5003133;28;20560;-75
2023/07/17 08:00:06;;;;;;;7.38;5.10;;;;;;;23.92;50.73;100653.91;4991992;28;20418;-77
2023/07/17 08:02:32;;;;;;;8.40;4.70;;;;;;;24.00;50.55;100670.22;4997755;28;20056;-75
2023/07/17 08:04:59;;;;;;;7.43;4.65;;;;;;;24.11;50.91;100672.69;5006491;28;20073;-75
2023/07/17 08:07:26;;;;;;;8.65;4.53;;;;;;;23.98;49.94;100677.63;5010066;28;20052;-75
2023/07/17 08:09:53;;;;;;;7.90;4.90;;;;;;;23.31;50.28;100690.41;5005988;28;20070;-75
2023/07/17 08:12:21;;;;;;;8.02;4.85;;;;;;;23.02;51.38;100684.22;5009225;28;20046;-75
2023/07/17 08:14:50;;;;;;;9.05;4.50;;;;;;;23.21;50.98;100673.38;5010060;28;20052;-75
2023/07/17 08:17:17;;;;;;;8.00;4.38;;;;;;;23.84;48.70;100694.34;5014568;28;20045;-74
2023/07/17 08:19:44;;;;;;;7.18;4.35;;;;;;;24.31;47.28;100674.31;4998904;28;20449;-75
2023/07/17 08:22:12;;;;;;;7.43;4.35;;;;;;;24.45;47.97;100668.34;5012824;28;20700;-76
2023/07/17 08:24:38;;;;;;;6.88;4.50;;;;;;;24.50;48.35;100689.56;5013343;28;20043;-74
2023/07/17 08:27:05;;;;;;;11.10;4.90;;;;;;;24.44;47.80;100680.19;5007975;28;20046;-75
2023/07/17 08:29:35;;;;;;;8.40;4.82;;;;;;;24.44;47.90;100663.94;4998462;28;20046;-75
2023/07/17 08:32:02;;;;;;;9.90;5.35;;;;;;;24.41;48.15;100679.63;5010895;28;20038;-74
2023/07/17 08:34:28;;;;;;;7.82;4.78;;;;;;;24.41;47.67;100682.34;5007780;28;20042;-76
2023/07/17 08:36:55;;;;;;;8.85;4.38;;;;;;;24.51;46.77;100685.00;5016459;28;20426;-76
2023/07/17 08:39:22;;;;;;;9.73;4.88;;;;;;;24.45;48.31;100681.03;5018575;28;20209;-76
2023/07/17 08:41:50;;;;;;;11.05;4.50;;;;;;;24.34;48.74;100690.25;5009183;28;20518;-76
2023/07/17 08:44:18;;;;;;;9.73;4.45;;;;;;;24.47;48.25;100688.00;5018126;28;20083;-76
2023/07/17 08:46:47;;;;;;;10.52;4.32;;;;;;;24.58;46.32;100658.97;5011367;28;20113;-76
2023/07/17 08:49:19;;;;;;;10.52;4.38;;;;;;;24.87;46.10;100702.09;5017323;28;20088;-76
2023/07/17 08:51:47;;;;;;;7.50;4.43;;;;;;;24.95;45.70;100683.19;5028324;28;20056;-76
2023/07/17 08:54:18;;;;;;;11.35;4.55;;;;;;;25.08;45.29;100684.47;5030865;28;20026;-75
2023/07/17 08:57:00;;;;;;;8.40;3.80;;;;;;;25.02;45.17;100681.56;5028498;28;20054;-76
2023/07/17 08:59:30;;;;;;;9.63;4.40;;;;;;;25.29;44.96;100673.28;5018150;28;20056;-74
2023/07/17 09:01:57;;;;;;;8.55;4.43;;;;;;;25.63;43.91;100656.22;5034094;28;20066;-75
2023/07/17 09:04:24;;;;;;;10.68;4.45;;;;;;;25.81;43.47;100681.38;5020257;28;20483;-75
2023/07/17 09:06:51;;;;;;;10.35;4.20;;;;;;;25.58;43.04;100680.22;5014939;28;20046;-75
2023/07/17 09:09:19;;;;;;;7.95;4.10;;;;;;;25.44;43.70;100679.81;4987659;28;20050;-74
2023/07/17 09:11:46;;;;;;;13.20;5.68;;;;;;;25.77;43.66;100669.16;5008424;28;20085;-75
2023/07/17 09:14:15;;;;;;;6.53;3.92;;;;;;;26.29;42.33;100663.59;5019707;28;20077;-75
2023/07/17 09:16:41;;;;;;;8.27;4.20;;;;;;;26.62;41.52;100665.28;5031783;28;20042;-73
2023/07/17 09:19:09;;;;;;;11.75;4.25;;;;;;;26.34;41.77;100655.75;5017397;28;20331;-74
2023/07/17 09:21:44;;;;;;;11.65;4.57;;;;;;;26.23;41.95;100643.34;5018963;28;20029;-75
2023/07/17 09:24:12;;;;;;;9.93;4.22;;;;;;;26.32;42.41;100641.50;5022414;28;20045;-74
2023/07/17 09:26:40;;;;;;;7.88;4.03;;;;;;;26.51;40.81;100652.06;5019330;28;20054;-74
2023/07/17 09:29:07;;;;;;;9.55;3.92;;;;;;;26.03;41.11;100652.78;5013118;28;24776;-75
2023/07/17 09:31:35;;;;;;;11.48;4.43;;;;;;;25.77;42.40;100663.72;5011411;28;20105;-76
2023/07/17 09:34:12;;;;;;;10.63;4.20;;;;;;;25.09;42.61;100658.25;5019657;28;20056;-76
2023/07/17 09:36:39;;;;;;;11.40;4.20;;;;;;;24.59;43.97;100652.56;5021800;28;20075;-75
2023/07/17 09:39:07;;;;;;;9.60;4.18;;;;;;;24.37;44.57;100662.03;5015404;28;20497;-76
2023/07/17 09:41:34;;;;;;;8.23;3.72;;;;;;;24.18;44.31;100651.31;5000921;28;20049;-77
2023/07/17 09:44:03;;;;;;;7.40;3.47;;;;;;;24.13;43.10;100665.28;4991317;28;20038;-75
2023/07/17 09:46:39;;;;;;;11.37;3.90;;;;;;;24.13;43.19;100663.44;5002397;28;20064;-74
2023/07/17 09:49:07;;;;;;;8.75;3.55;;;;;;;24.24;43.19;100648.84;5003983;28;21395;-75
2023/07/17 09:51:34;;;;;;;7.75;3.22;;;;;;;24.47;43.05;100638.41;5000913;28;20133;-76
2023/07/17 09:54:05;;;;;;;11.98;3.53;;;;;;;24.81;42.62;100644.81;5009525;28;20042;-75
2023/07/17 09:56:32;;;;;;;5.80;3.10;;;;;;;25.01;41.28;100655.50;5012259;28;20042;-75
2023/07/17 09:59:13;;;;;;;9.52;3.60;;;;;;;25.31;40.81;100648.72;4999164;28;20050;-75
2023/07/17 10:01:47;;;;;;;9.02;3.17;;;;;;;25.54;40.70;100647.13;4998389;28;20513;-76
2023/07/17 10:04:31;;;;;;;5.28;3.42;;;;;;;25.89;39.32;100642.56;5006554;28;20042;-75
2023/07/17 10:07:01;;;;;;;5.45;3.15;;;;;;;26.10;38.49;100653.84;5006440;28;20054;-75
2023/07/17 10:09:30;;;;;;;7.25;3.42;;;;;;;26.00;38.80;100653.09;5002842;28;20121;-75
2023/07/17 10:11:59;;;;;;;8.32;3.60;;;;;;;25.66;38.23;100632.31;4999940;28;20068;-76
2023/07/17 10:14:27;;;;;;;5.47;3.13;;;;;;;25.28;38.52;100647.19;4995001;28;20066;-75
2023/07/17 10:16:54;;;;;;;9.88;3.05;;;;;;;25.29;39.04;100642.63;4993041;28;20049;-75
2023/07/17 10:19:20;;;;;;;9.15;3.30;;;;;;;25.29;38.91;100626.34;4999899;28;20049;-75
2023/07/17 10:21:56;;;;;;;8.35;3.80;;;;;;;25.68;37.83;100645.69;5002574;28;20053;-75
2023/07/17 10:24:26;;;;;;;9.05;3.55;;;;;;;25.98;37.12;100622.56;5009700;28;20091;-75
2023/07/17 10:26:57;;;;;;;7.15;3.08;;;;;;;26.50;37.20;100650.34;4989344;28;20130;-76
2023/07/17 10:29:31;;;;;;;4.75;2.92;;;;;;;26.89;35.41;100640.50;5011131;28;20065;-75
2023/07/17 10:32:02;;;;;;;7.15;2.90;;;;;;;26.87;32.43;100639.84;5024220;28;20058;-75
2023/07/17 10:34:49;;;;;;;7.50;3.00;;;;;;;26.84;32.58;100642.03;5028408;28;20048;-76
2023/07/17 10:37:42;;;;;;;7.60;3.20;;;;;;;26.23;34.01;100632.47;5029368;28;20052;-75
2023/07/17 10:40:28;;;;;;;9.02;2.97;;;;;;;26.10;34.07;100632.97;5007414;28;20054;-76
2023/07/17 10:43:10;;;;;;;8.52;2.95;;;;;;;26.23;34.29;100632.47;5023387;28;20058;-77
2023/07/17 10:45:38;;;;;;;4.68;2.70;;;;;;;26.55;33.36;100628.97;5013087;28;20045;-76
2023/07/17 10:48:06;;;;;;;8.73;2.88;;;;;;;26.62;33.59;100629.97;5011738;28;20072;-77
2023/07/17 10:50:34;;;;;;;6.57;3.05;;;;;;;26.76;33.93;100628.47;5021377;28;20050;-76
2023/07/17 10:53:04;;;;;;;8.27;3.03;;;;;;;26.76;33.86;100637.44;5028895;28;20122;-76
2023/07/17 10:55:32;;;;;;;4.97;3.30;;;;;;;26.56;34.77;100636.09;5013072;28;20041;-76
2023/07/17 10:58:00;;;;;;;6.18;3.20;;;;;;;26.66;34.57;100644.94;5006568;28;20390;-76
2023/07/17 11:00:27;;;;;;;5.97;3.47;;;;;;;26.90;34.24;100631.34;5001838;28;20192;-76
2023/07/17 11:02:58;;;;;;;7.97;3.05;;;;;;;26.92;34.42;100629.28;5003149;28;20062;-75
2023/07/17 11:05:25;;;;;;;7.40;3.55;;;;;;;27.08;33.16;100638.44;4998533;28;20042;-75
2023/07/17 11:07:55;;;;;;;5.50;3.13;;;;;;;26.91;33.73;100629.47;5016594;28;20185;-75
2023/07/17 11:10:22;;;;;;;10.50;2.92;;;;;;;26.76;34.34;100607.56;4997822;28;20751;-75
2023/07/17 11:12:48;;;;;;;8.57;3.30;;;;;;;26.93;34.25;100632.84;5006173;28;20041;-74
2023/07/17 11:15:17;;;;;;;7.35;2.70;;;;;;;26.75;33.14;100622.19;5008625;28;20093;-74
2023/07/17 11:17:45;;;;;;;5.80;2.55;;;;;;;26.87;33.98;100618.09;5007746;28;20103;-74
2023/07/17 11:20:13;;;;;;;4.90;3.10;;;;;;;27.37;33.37;100621.59;4985799;28;20053;-74
2023/07/17 11:22:40;;;;;;;8.40;3.25;;;;;;;27.46;33.09;100615.06;4992748;28;20556;-74
2023/07/17 11:25:10;;;;;;;6.90;2.90;;;;;;;27.73;32.85;100616.50;4997343;28;20526;-75